createdAt,value
2023-05-20T00:00:26.272Z,56.2
2023-05-20T00:02:09.906Z,56.1
2023-05-20T00:03:53.697Z,56.1
2023-05-20T00:05:37.430Z,56.2
2023-05-20T00:07:21.200Z,56.1
2023-05-20T00:09:04.770Z,56.1
2023-05-20T00:10:48.364Z,56.1
2023-05-20T00:12:32.209Z,56.1
2023-05-20T00:14:15.751Z,56.1
2023-05-20T00:15:59.609Z,56.1
2023-05-20T00:17:43.346Z,56.2
2023-05-20T00:19:26.974Z,56.2
2023-05-20T00:21:10.715Z,56.1
2023-05-20T00:22:54.455Z,56.1
2023-05-20T00:24:37.970Z,56.1
2023-05-20T00:26:21.772Z,56.1
2023-05-20T00:28:05.463Z,56.1
2023-05-20T00:29:49.214Z,56.2
2023-05-20T00:31:32.865Z,56.1
2023-05-20T00:33:16.533Z,56.1
2023-05-20T00:35:00.322Z,56.2
2023-05-20T00:36:43.901Z,56.1
2023-05-20T00:38:27.585Z,56.1
2023-05-20T00:40:11.415Z,56.1
2023-05-20T00:41:54.971Z,56.2
2023-05-20T00:43:38.670Z,56.2
2023-05-20T00:45:22.377Z,56.2
2023-05-20T00:47:06.059Z,56.1
2023-05-20T00:48:49.757Z,56.1
2023-05-20T00:50:33.472Z,56.2
2023-05-20T00:52:17.175Z,56.1
2023-05-20T00:54:00.878Z,56.1
2023-05-20T00:55:44.573Z,56.1
2023-05-20T00:57:28.302Z,56.1
2023-05-20T00:59:11.980Z,56.2
2023-05-20T01:00:55.701Z,56.1
2023-05-20T01:02:39.393Z,56.1
2023-05-20T01:04:23.123Z,56.2
2023-05-20T01:06:06.863Z,56.2
2023-05-20T01:07:50.631Z,56.2
2023-05-20T01:09:34.239Z,56.1
2023-05-20T01:11:17.980Z,56.2
2023-05-20T01:13:01.586Z,56.2
2023-05-20T01:14:45.324Z,56.2
2023-05-20T01:16:28.994Z,56.2
2023-05-20T01:18:12.696Z,56.2
2023-05-20T01:19:56.400Z,56.2
2023-05-20T01:21:40.087Z,56.1
2023-05-20T01:23:23.925Z,56.1
2023-05-20T01:25:07.715Z,56.1
2023-05-20T01:26:51.310Z,56.1
2023-05-20T01:28:35.146Z,56.1
2023-05-20T01:30:18.767Z,56.1
2023-05-20T01:32:02.504Z,56.1
2023-05-20T01:33:46.202Z,56.1
2023-05-20T01:35:29.714Z,56.1
2023-05-20T01:37:13.528Z,56.2
2023-05-20T01:38:57.311Z,56.2
2023-05-20T01:40:41.019Z,56.2
2023-05-20T01:42:24.708Z,56.2
2023-05-20T01:44:08.485Z,56.1
2023-05-20T01:45:52.109Z,56.1
2023-05-20T01:47:35.696Z,56.2
2023-05-20T01:49:19.564Z,56.1
2023-05-20T01:51:03.217Z,56.1
2023-05-20T01:52:46.951Z,56.2
2023-05-20T01:54:30.438Z,56.1
2023-05-20T01:56:14.267Z,56.1
2023-05-20T01:57:57.902Z,56.2
2023-05-20T01:59:41.744Z,56.2
2023-05-20T02:01:25.408Z,56.2
2023-05-20T02:03:08.943Z,56.2
2023-05-20T02:04:52.839Z,56.2
2023-05-20T02:06:36.343Z,56.2
2023-05-20T02:08:20.174Z,56.2
2023-05-20T02:10:03.798Z,56.2
2023-05-20T02:11:47.582Z,56.2
2023-05-20T02:13:31.344Z,56.2
2023-05-20T02:15:14.932Z,56.2
2023-05-20T02:16:58.574Z,56.2
2023-05-20T02:18:42.449Z,56.2
2023-05-20T02:20:26.202Z,56.3
2023-05-20T02:22:09.766Z,56.2
2023-05-20T02:23:53.492Z,56.2
2023-05-20T02:25:37.155Z,56.2
2023-05-20T02:27:20.985Z,56.2
2023-05-20T02:29:04.683Z,56.2
2023-05-20T02:30:48.378Z,56.2
2023-05-20T02:32:32.009Z,56.2
2023-05-20T02:34:15.612Z,56.2
2023-05-20T02:35:59.491Z,56.2
2023-05-20T02:37:43.162Z,56.2
2023-05-20T02:39:26.859Z,56.2
2023-05-20T02:41:10.580Z,56.3
2023-05-20T02:42:54.302Z,56.2
2023-05-20T02:44:38.036Z,56.2
2023-05-20T02:46:21.753Z,56.2
2023-05-20T02:48:05.496Z,56.2
2023-05-20T02:49:49.106Z,56.2
2023-05-20T02:51:32.733Z,56.2
2023-05-20T02:53:16.480Z,56.2
2023-05-20T02:55:00.129Z,56.2
2023-05-20T02:56:43.866Z,56.2
2023-05-20T02:58:27.630Z,56.2
2023-05-20T03:00:11.306Z,56.3
2023-05-20T03:01:55.082Z,56.2
2023-05-20T03:03:38.594Z,56.2
2023-05-20T03:05:22.354Z,56.3
2023-05-20T03:07:06.034Z,56.2
2023-05-20T03:08:49.641Z,56.2
2023-05-20T03:10:33.344Z,56.2
2023-05-20T03:12:17.133Z,56.2
2023-05-20T03:14:00.926Z,56.2
2023-05-20T03:15:44.460Z,56.2
2023-05-20T03:17:28.312Z,56.3
2023-05-20T03:19:12.111Z,56.3
2023-05-20T03:20:55.747Z,56.2
2023-05-20T03:22:39.397Z,56.2
2023-05-20T03:24:23.143Z,56.2
2023-05-20T03:26:06.718Z,56.3
2023-05-20T03:27:50.520Z,56.2
2023-05-20T03:29:34.211Z,56.2
2023-05-20T03:31:17.952Z,56.2
2023-05-20T03:33:01.599Z,56.2
2023-05-20T03:34:45.398Z,56.2
2023-05-20T03:36:29.006Z,56.2
2023-05-20T03:38:12.727Z,56.2
2023-05-20T03:39:56.278Z,56.2
2023-05-20T03:41:40.233Z,56.2
2023-05-20T03:43:23.772Z,56.2
2023-05-20T03:45:07.530Z,56.1
2023-05-20T03:46:51.195Z,56.2
2023-05-20T03:48:34.972Z,56.2
2023-05-20T03:50:18.632Z,56.2
2023-05-20T03:52:02.362Z,56.2
2023-05-20T03:53:46.029Z,56.2
2023-05-20T03:55:29.690Z,56.2
2023-05-20T03:57:13.376Z,56.2
2023-05-20T03:58:57.205Z,56.2
2023-05-20T04:00:40.704Z,56.2
2023-05-20T04:02:24.502Z,56.2
2023-05-20T04:05:51.905Z,56.2
2023-05-20T04:07:35.724Z,56.2
2023-05-20T04:09:19.358Z,56.2
2023-05-20T04:11:03.090Z,56.3
2023-05-20T04:12:46.723Z,56.2
2023-05-20T04:14:30.411Z,56.2
2023-05-20T04:16:14.201Z,56.2
2023-05-20T04:17:57.829Z,56.2
2023-05-20T04:19:41.589Z,56.2
2023-05-20T04:21:25.263Z,56.2
2023-05-20T04:23:08.973Z,56.2
2023-05-20T04:24:52.697Z,56.2
2023-05-20T04:26:36.246Z,56.2
2023-05-20T04:28:20.163Z,56.2
2023-05-20T04:30:03.629Z,56.3
2023-05-20T04:33:31.052Z,56.2
2023-05-20T04:35:14.746Z,56.2
2023-05-20T04:36:58.472Z,56.2
2023-05-20T04:38:42.131Z,56.2
2023-05-20T04:40:25.857Z,56.2
2023-05-20T04:42:09.537Z,56.2
2023-05-20T04:43:53.248Z,56.2
2023-05-20T04:45:36.945Z,56.2
2023-05-20T04:47:20.652Z,56.2
2023-05-20T04:49:04.364Z,56.1
2023-05-20T04:50:48.062Z,56.1
2023-05-20T04:52:31.741Z,56.1
2023-05-20T04:54:15.458Z,56.2
2023-05-20T04:55:59.170Z,56.1
2023-05-20T04:57:42.857Z,56.1
2023-05-20T04:59:26.585Z,56.1
2023-05-20T05:01:10.260Z,56.1
2023-05-20T05:02:53.977Z,56.1
2023-05-20T05:04:37.698Z,56.1
2023-05-20T05:06:21.389Z,56.1
2023-05-20T05:08:05.094Z,56.1
2023-05-20T05:09:48.792Z,56.1
2023-05-20T05:11:32.489Z,56.1
2023-05-20T05:13:16.190Z,56
2023-05-20T05:14:59.886Z,56
2023-05-20T05:16:43.598Z,56
2023-05-20T05:18:27.289Z,56
2023-05-20T05:20:10.992Z,56
2023-05-20T05:21:54.687Z,56
2023-05-20T05:23:38.386Z,56
2023-05-20T05:25:22.094Z,56
2023-05-20T05:27:05.810Z,55.9
2023-05-20T05:28:49.503Z,55.9
2023-05-20T05:30:33.203Z,55.9
2023-05-20T05:32:16.908Z,55.9
2023-05-20T05:34:00.610Z,55.9
2023-05-20T05:35:44.318Z,55.9
2023-05-20T05:37:28.003Z,55.9
2023-05-20T05:39:11.713Z,55.8
2023-05-20T05:40:55.415Z,55.8
2023-05-20T05:42:39.100Z,55.8
2023-05-20T05:44:22.812Z,55.9
2023-05-20T05:46:06.511Z,55.8
2023-05-20T05:47:50.216Z,55.8
2023-05-20T05:49:33.925Z,55.8
2023-05-20T05:51:17.622Z,55.7
2023-05-20T05:53:01.330Z,55.7
2023-05-20T05:54:45.022Z,55.7
2023-05-20T05:56:28.739Z,55.6
2023-05-20T05:58:12.434Z,55.5
2023-05-20T05:59:56.132Z,55.5
2023-05-20T06:01:39.854Z,55.5
2023-05-20T06:03:23.557Z,55.6
2023-05-20T06:05:07.238Z,55.6
2023-05-20T06:06:50.954Z,55.5
2023-05-20T06:08:34.648Z,55.4
2023-05-20T06:10:18.360Z,55.4
2023-05-20T06:12:02.052Z,55.3
2023-05-20T06:13:45.953Z,55.3
2023-05-20T06:15:29.441Z,55.3
2023-05-20T06:17:13.157Z,55.3
2023-05-20T06:18:56.885Z,55.3
2023-05-20T06:20:40.555Z,55.4
2023-05-20T06:22:24.252Z,55.3
2023-05-20T06:24:07.967Z,55.2
2023-05-20T06:25:51.654Z,55.1
2023-05-20T06:27:35.375Z,55.1
2023-05-20T06:29:19.074Z,55.1
2023-05-20T06:31:02.782Z,55
2023-05-20T06:32:46.478Z,55
2023-05-20T06:34:30.197Z,55
2023-05-20T06:36:13.872Z,54.9
2023-05-20T06:37:57.578Z,54.9
2023-05-20T06:39:41.282Z,54.9
2023-05-20T06:41:24.980Z,54.9
2023-05-20T06:43:08.690Z,54.9
2023-05-20T06:44:52.385Z,54.8
2023-05-20T06:46:36.089Z,54.8
2023-05-20T06:48:19.806Z,54.8
2023-05-20T06:50:03.481Z,54.8
2023-05-20T06:51:47.201Z,54.8
2023-05-20T06:53:30.912Z,54.7
2023-05-20T06:55:14.609Z,54.7
2023-05-20T06:56:58.317Z,54.6
2023-05-20T06:58:41.990Z,53.9
2023-05-20T07:00:25.700Z,53.5
2023-05-20T07:02:09.400Z,53.1
2023-05-20T07:03:53.103Z,52.7
2023-05-20T07:05:36.790Z,52.3
2023-05-20T07:07:20.514Z,51.9
2023-05-20T07:09:04.221Z,51.6
2023-05-20T07:10:47.910Z,51.2
2023-05-20T07:12:31.606Z,50.6
2023-05-20T07:14:15.319Z,49.4
2023-05-20T07:15:59.016Z,48.4
2023-05-20T07:17:42.818Z,48.4
2023-05-20T07:19:26.401Z,48.3
2023-05-20T07:21:10.108Z,47.6
2023-05-20T07:22:53.802Z,47.6
2023-05-20T07:24:37.510Z,47.4
2023-05-20T07:26:21.199Z,46.9
2023-05-20T07:28:04.909Z,46.8
2023-05-20T07:29:48.599Z,47
2023-05-20T07:31:32.322Z,47.1
2023-05-20T07:33:16.003Z,47.2
2023-05-20T07:34:59.714Z,47.3
2023-05-20T07:36:43.418Z,47.3
2023-05-20T07:38:27.116Z,47.4
2023-05-20T07:40:10.810Z,46.8
2023-05-20T07:41:54.501Z,46.2
2023-05-20T07:43:38.213Z,45.5
2023-05-20T07:45:21.908Z,45.1
2023-05-20T07:47:05.600Z,45.4
2023-05-20T07:48:49.313Z,45.8
2023-05-20T07:50:33.036Z,45.9
2023-05-20T07:52:16.730Z,45.5
2023-05-20T07:54:00.417Z,45.7
2023-05-20T07:55:44.119Z,46
2023-05-20T07:57:27.825Z,45.8
2023-05-20T07:59:11.537Z,44.9
2023-05-20T08:00:55.243Z,45
2023-05-20T08:02:38.946Z,45.2
2023-05-20T08:04:22.653Z,44.8
2023-05-20T08:06:06.352Z,44.7
2023-05-20T08:07:50.067Z,44
2023-05-20T08:09:33.747Z,43
2023-05-20T08:11:17.469Z,43
2023-05-20T08:13:01.147Z,42.5
2023-05-20T08:14:44.860Z,42.4
2023-05-20T08:16:28.566Z,41.8
2023-05-20T08:18:12.268Z,41.4
2023-05-20T08:19:55.971Z,41.2
2023-05-20T08:21:39.674Z,41.3
2023-05-20T08:23:23.372Z,41.8
2023-05-20T08:25:07.088Z,42.1
2023-05-20T08:26:50.769Z,42.3
2023-05-20T08:28:34.483Z,43.1
2023-05-20T08:30:18.179Z,43.5
2023-05-20T08:32:01.881Z,43.6
2023-05-20T08:33:45.563Z,43.7
2023-05-20T08:35:29.295Z,44
2023-05-20T08:37:12.982Z,43.9
2023-05-20T08:38:56.682Z,44.2
2023-05-20T08:40:40.412Z,44.5
2023-05-20T08:42:24.089Z,44
2023-05-20T08:44:07.796Z,44.1
2023-05-20T08:45:51.507Z,44.1
2023-05-20T08:47:35.186Z,44.2
2023-05-20T08:49:18.907Z,44
2023-05-20T08:51:02.593Z,44.3
2023-05-20T08:52:46.297Z,44.8
2023-05-20T08:54:30.027Z,45
2023-05-20T08:56:13.709Z,45.2
2023-05-20T08:57:57.420Z,45.6
2023-05-20T08:59:41.114Z,45.5
2023-05-20T09:01:24.826Z,45.5
2023-05-20T09:03:08.541Z,45.7
2023-05-20T09:04:52.224Z,45.6
2023-05-20T09:06:35.925Z,45.8
2023-05-20T09:08:19.639Z,46.2
2023-05-20T09:10:03.319Z,46.5
2023-05-20T09:11:47.037Z,46.7
2023-05-20T09:13:30.746Z,47
2023-05-20T09:15:14.444Z,47.2
2023-05-20T09:16:58.147Z,47.1
2023-05-20T09:18:41.839Z,46.7
2023-05-20T09:20:25.545Z,46.5
2023-05-20T09:22:09.253Z,46.4
2023-05-20T09:23:52.953Z,46.3
2023-05-20T09:25:36.647Z,46.4
2023-05-20T09:27:20.379Z,46.4
2023-05-20T09:29:04.103Z,46.4
2023-05-20T09:30:47.786Z,46.4
2023-05-20T09:32:31.499Z,46.4
2023-05-20T09:34:15.194Z,46.4
2023-05-20T09:35:58.892Z,46.5
2023-05-20T09:37:42.586Z,46.6
2023-05-20T09:39:26.299Z,46.7
2023-05-20T09:41:09.997Z,46.9
2023-05-20T09:42:53.696Z,46.8
2023-05-20T09:44:37.401Z,46.9
2023-05-20T09:46:21.118Z,47
2023-05-20T09:48:04.800Z,47.1
2023-05-20T09:49:48.500Z,47.1
2023-05-20T09:51:32.222Z,47.2
2023-05-20T09:53:15.908Z,47.3
2023-05-20T09:54:59.615Z,47.5
2023-05-20T09:56:43.315Z,47.3
2023-05-20T09:58:27.031Z,47.3
2023-05-20T10:00:10.745Z,47.3
2023-05-20T10:01:54.459Z,47.1
2023-05-20T10:03:38.140Z,47.1
2023-05-20T10:05:21.856Z,47.2
2023-05-20T10:07:05.541Z,47.2
2023-05-20T10:08:49.257Z,47.4
2023-05-20T10:10:32.947Z,47.8
2023-05-20T10:12:16.659Z,48
2023-05-20T10:14:00.371Z,47.8
2023-05-20T10:15:44.059Z,47.7
2023-05-20T10:17:27.760Z,47.7
2023-05-20T10:19:11.462Z,47.6
2023-05-20T10:20:55.174Z,47.6
2023-05-20T10:22:38.894Z,47.7
2023-05-20T10:24:22.571Z,47.5
2023-05-20T10:26:06.275Z,47.5
2023-05-20T10:27:49.987Z,47.4
2023-05-20T10:29:33.676Z,47.2
2023-05-20T10:31:17.391Z,47.2
2023-05-20T10:33:01.087Z,47.4
2023-05-20T10:34:44.780Z,47.6
2023-05-20T10:36:28.518Z,47.7
2023-05-20T10:38:12.275Z,47.6
2023-05-20T10:39:55.959Z,47.7
2023-05-20T10:41:39.637Z,47.7
2023-05-20T10:43:23.324Z,47.7
2023-05-20T10:45:07.088Z,47.7
2023-05-20T10:46:50.796Z,47.5
2023-05-20T10:48:34.414Z,47.4
2023-05-20T10:50:18.203Z,47.4
2023-05-20T10:52:02.047Z,47.6
2023-05-20T10:53:45.490Z,47.5
2023-05-20T10:55:29.327Z,47.7
2023-05-20T10:57:12.893Z,47.8
2023-05-20T10:58:56.728Z,47.5
2023-05-20T11:00:40.424Z,47.6
2023-05-20T11:02:24.165Z,47.7
2023-05-20T11:04:07.929Z,47.5
2023-05-20T11:05:51.553Z,47.5
2023-05-20T11:07:35.168Z,47.4
2023-05-20T11:09:18.983Z,47.3
2023-05-20T11:11:02.505Z,47.1
2023-05-20T11:12:46.200Z,46.9
2023-05-20T11:14:30.076Z,46.8
2023-05-20T11:16:13.660Z,46.8
2023-05-20T11:17:57.522Z,47
2023-05-20T11:19:40.993Z,47
2023-05-20T11:21:24.861Z,47
2023-05-20T11:23:08.547Z,47.2
2023-05-20T11:24:52.217Z,47.3
2023-05-20T11:26:35.956Z,47.5
2023-05-20T11:28:19.543Z,47.5
2023-05-20T11:30:03.300Z,47.3
2023-05-20T11:31:46.938Z,47.3
2023-05-20T11:33:30.606Z,47.4
2023-05-20T11:35:14.450Z,47.4
2023-05-20T11:36:58.181Z,47.5
2023-05-20T11:38:41.858Z,47.5
2023-05-20T11:40:25.553Z,47.6
2023-05-20T11:42:09.355Z,47.8
2023-05-20T11:43:52.922Z,47.7
2023-05-20T11:45:36.643Z,47.6
2023-05-20T11:47:20.372Z,47.4
2023-05-20T11:49:03.915Z,47.2
2023-05-20T11:50:47.715Z,47.2
2023-05-20T11:52:31.502Z,47.1
2023-05-20T11:54:15.214Z,47.2
2023-05-20T11:55:58.802Z,47.3
2023-05-20T11:57:42.431Z,47.4
2023-05-20T11:59:26.142Z,47.5
2023-05-20T12:01:09.833Z,47.6
2023-05-20T12:02:53.536Z,47.7
2023-05-20T12:04:37.236Z,47.8
2023-05-20T12:06:20.930Z,47.8
2023-05-20T12:08:04.630Z,47.9
2023-05-20T12:09:48.401Z,48
2023-05-20T12:11:32.147Z,48
2023-05-20T12:13:15.856Z,48
2023-05-20T12:14:59.619Z,47.9
2023-05-20T12:16:43.373Z,47.9
2023-05-20T12:18:27.036Z,47.9
2023-05-20T12:20:10.638Z,47.9
2023-05-20T12:21:54.452Z,47.9
2023-05-20T12:23:38.093Z,47.8
2023-05-20T12:25:32.145Z,47.8
2023-05-20T12:27:05.441Z,47.8
2023-05-20T12:28:49.076Z,47.8
2023-05-20T12:30:32.761Z,47.8
2023-05-20T12:32:16.597Z,47.7
2023-05-20T12:34:00.344Z,47.7
2023-05-20T12:35:44.016Z,47.7
2023-05-20T12:37:27.568Z,47.7
2023-05-20T12:39:11.299Z,47.7
2023-05-20T12:40:55.201Z,47.7
2023-05-20T12:42:38.735Z,47.7
2023-05-20T12:44:22.389Z,47.7
2023-05-20T12:46:06.355Z,47.7
2023-05-20T12:47:49.933Z,47.8
2023-05-20T12:49:33.595Z,47.8
2023-05-20T12:51:17.272Z,47.7
2023-05-20T12:53:01.040Z,47.6
2023-05-20T12:54:44.605Z,47.5
2023-05-20T12:56:28.408Z,47.4
2023-05-20T12:58:12.233Z,47.2
2023-05-20T12:59:55.873Z,47.2
2023-05-20T13:01:39.482Z,47.3
2023-05-20T13:03:23.145Z,47.3
2023-05-20T13:05:06.981Z,47.4
2023-05-20T13:06:50.522Z,47.5
2023-05-20T13:08:34.345Z,47.7
2023-05-20T13:10:17.928Z,47.6
2023-05-20T13:12:01.772Z,47.7
2023-05-20T13:13:45.494Z,47.6
2023-05-20T13:15:29.151Z,47.6
2023-05-20T13:17:12.905Z,47.7
2023-05-20T13:18:56.441Z,47.8
2023-05-20T13:20:40.142Z,47.7
2023-05-20T13:22:23.858Z,47.7
2023-05-20T13:24:07.556Z,47.7
2023-05-20T13:25:51.250Z,47.7
2023-05-20T13:27:35.020Z,47.7
2023-05-20T13:29:18.652Z,47.7
2023-05-20T13:31:02.357Z,47.6
2023-05-20T13:32:46.107Z,47.6
2023-05-20T13:34:29.831Z,47.7
2023-05-20T13:36:13.512Z,47.8
2023-05-20T13:37:57.333Z,47.9
2023-05-20T13:39:41.042Z,47.9
2023-05-20T13:41:24.718Z,48
2023-05-20T13:43:08.323Z,48.3
2023-05-20T13:44:52.190Z,48.5
2023-05-20T13:46:35.872Z,48.6
2023-05-20T13:48:19.576Z,48.7
2023-05-20T13:50:03.127Z,49.1
2023-05-20T13:51:46.919Z,49.2
2023-05-20T13:53:30.689Z,49
2023-05-20T13:55:14.304Z,49.2
2023-05-20T13:56:58.035Z,49.2
2023-05-20T13:58:41.615Z,49
2023-05-20T14:00:25.361Z,49
2023-05-20T14:02:09.119Z,48.9
2023-05-20T14:03:52.736Z,48.7
2023-05-20T14:05:36.459Z,48.7
2023-05-20T14:07:20.183Z,48.7
2023-05-20T14:09:03.859Z,48.7
2023-05-20T14:10:47.502Z,48.6
2023-05-20T14:12:31.185Z,48.8
2023-05-20T14:14:15.035Z,49
2023-05-20T14:15:58.781Z,48.9
2023-05-20T14:17:42.477Z,48.8
2023-05-20T14:19:26.108Z,48.8
2023-05-20T14:21:09.869Z,48.9
2023-05-20T14:22:53.397Z,48.8
2023-05-20T14:26:20.912Z,49
2023-05-20T14:28:04.548Z,49
2023-05-20T14:29:48.381Z,49
2023-05-20T14:31:31.939Z,49.1
2023-05-20T14:33:15.800Z,48.9
2023-05-20T14:34:59.419Z,48.9
2023-05-20T14:36:43.145Z,49
2023-05-20T14:40:10.401Z,49
2023-05-20T14:41:54.111Z,49.2
2023-05-20T14:43:37.816Z,49.2
2023-05-20T14:45:21.523Z,49.2
2023-05-20T14:47:05.289Z,49.4
2023-05-20T14:48:48.933Z,49.4
2023-05-20T14:50:32.610Z,49.7
2023-05-20T14:52:16.333Z,49.9
2023-05-20T14:54:00.068Z,49.8
2023-05-20T14:55:43.731Z,49.8
2023-05-20T14:57:27.436Z,49.9
2023-05-20T14:59:11.228Z,50
2023-05-20T15:00:54.832Z,50
2023-05-20T15:02:38.532Z,50.3
2023-05-20T15:04:22.372Z,50.3
2023-05-20T15:06:06.083Z,50.3
2023-05-20T15:07:49.691Z,50.3
2023-05-20T15:09:33.376Z,50.2
2023-05-20T15:11:17.119Z,50.2
2023-05-20T15:13:00.942Z,50.3
2023-05-20T15:14:44.491Z,50.3
2023-05-20T15:16:28.128Z,50.2
2023-05-20T15:18:11.835Z,50.3
2023-05-20T15:19:55.530Z,50.3
2023-05-20T15:21:39.405Z,50.3
2023-05-20T15:23:22.942Z,50.5
2023-05-20T15:25:06.699Z,50.6
2023-05-20T15:26:50.374Z,50.6
2023-05-20T15:28:34.213Z,50.6
2023-05-20T15:30:17.812Z,50.6
2023-05-20T15:32:01.566Z,50.6
2023-05-20T15:33:45.154Z,50.7
2023-05-20T15:35:28.895Z,50.7
2023-05-20T15:37:12.742Z,50.7
2023-05-20T15:38:56.284Z,50.7
2023-05-20T15:40:39.967Z,50.7
2023-05-20T15:42:23.664Z,50.7
2023-05-20T15:44:07.365Z,50.7
2023-05-20T15:45:51.068Z,50.7
2023-05-20T15:47:34.779Z,50.7
2023-05-20T15:49:18.497Z,50.8
2023-05-20T15:51:02.209Z,50.8
2023-05-20T15:52:45.909Z,50.7
2023-05-20T15:54:29.730Z,50.7
2023-05-20T15:56:13.306Z,50.7
2023-05-20T15:57:57.023Z,50.7
2023-05-20T15:59:40.715Z,50.7
2023-05-20T16:01:24.402Z,50.7
2023-05-20T16:03:08.118Z,50.6
2023-05-20T16:04:51.824Z,50.6
2023-05-20T16:06:35.509Z,50.7
2023-05-20T16:08:19.207Z,50.7
2023-05-20T16:10:02.914Z,50.8
2023-05-20T16:11:46.623Z,50.8
2023-05-20T16:13:30.302Z,50.8
2023-05-20T16:15:14.021Z,50.8
2023-05-20T16:16:57.717Z,50.8
2023-05-20T16:18:41.433Z,50.8
2023-05-20T16:20:25.129Z,50.8
2023-05-20T16:22:08.829Z,50.7
2023-05-20T16:23:52.529Z,50.6
2023-05-20T16:25:36.238Z,50.5
2023-05-20T16:27:19.992Z,50.5
2023-05-20T16:29:03.625Z,50.5
2023-05-20T16:30:47.324Z,50.5
2023-05-20T16:34:14.721Z,50.6
2023-05-20T16:35:58.418Z,50.6
2023-05-20T16:37:42.135Z,50.5
2023-05-20T16:39:25.836Z,50.5
2023-05-20T16:41:09.518Z,50.5
2023-05-20T16:42:53.222Z,50.5
2023-05-20T16:44:36.926Z,50.5
2023-05-20T16:46:20.643Z,50.5
2023-05-20T16:48:04.339Z,50.5
2023-05-20T16:49:48.036Z,50.6
2023-05-20T16:51:31.741Z,50.7
2023-05-20T16:53:15.439Z,50.8
2023-05-20T16:54:59.140Z,50.7
2023-05-20T16:56:42.834Z,50.7
2023-05-20T16:58:26.540Z,50.7
2023-05-20T17:00:10.256Z,50.9
2023-05-20T17:01:53.923Z,51
2023-05-20T17:03:37.627Z,50.8
2023-05-20T17:05:21.346Z,50.8
2023-05-20T17:08:48.736Z,51
2023-05-20T17:10:32.443Z,51.1
2023-05-20T17:12:16.155Z,51.1
2023-05-20T17:13:59.851Z,51.1
2023-05-20T17:15:43.550Z,51.2
2023-05-20T17:17:27.242Z,51.3
2023-05-20T17:19:10.964Z,51.3
2023-05-20T17:20:54.656Z,51.3
2023-05-20T17:22:38.351Z,51.4
2023-05-20T17:24:22.059Z,51.4
2023-05-20T17:26:05.748Z,51.5
2023-05-20T17:27:49.467Z,51.5
2023-05-20T17:29:33.142Z,51.5
2023-05-20T17:31:16.853Z,51.6
2023-05-20T17:33:00.571Z,51.7
2023-05-20T17:34:44.295Z,51.7
2023-05-20T17:36:27.959Z,51.7
2023-05-20T17:38:11.672Z,51.8
2023-05-20T17:39:55.385Z,51.8
2023-05-20T17:41:39.095Z,51.8
2023-05-20T17:43:22.771Z,51.8
2023-05-20T17:45:06.495Z,52
2023-05-20T17:46:50.202Z,52
2023-05-20T17:48:33.900Z,52
2023-05-20T17:50:17.600Z,52.1
2023-05-20T17:52:01.306Z,52.1
2023-05-20T17:53:45.021Z,52.1
2023-05-20T17:55:28.714Z,52.1
2023-05-20T17:57:12.418Z,52.2
2023-05-20T17:58:56.113Z,52.3
2023-05-20T18:00:39.818Z,52.4
2023-05-20T18:02:23.560Z,52.5
2023-05-20T18:04:07.222Z,52.6
2023-05-20T18:05:50.921Z,52.6
2023-05-20T18:07:34.639Z,52.6
2023-05-20T18:09:18.346Z,52.7
2023-05-20T18:11:02.061Z,52.7
2023-05-20T18:12:45.731Z,52.7
2023-05-20T18:14:29.447Z,52.8
2023-05-20T18:16:13.157Z,52.8
2023-05-20T18:17:56.850Z,52.8
2023-05-20T18:19:40.560Z,52.9
2023-05-20T18:21:24.247Z,52.9
2023-05-20T18:23:07.960Z,52.9
2023-05-20T18:24:51.655Z,53
2023-05-20T18:26:42.876Z,53.1
2023-05-20T18:28:19.066Z,53.1
2023-05-20T18:30:02.758Z,53.1
2023-05-20T18:31:46.537Z,53.1
2023-05-20T18:33:30.158Z,53.2
2023-05-20T18:35:13.914Z,53.2
2023-05-20T18:36:57.603Z,53.3
2023-05-20T18:38:41.330Z,53.4
2023-05-20T18:42:08.699Z,53.5
2023-05-20T18:43:52.431Z,53.6
2023-05-20T18:45:36.136Z,53.7
2023-05-20T18:47:19.817Z,53.8
2023-05-20T18:49:03.536Z,53.9
2023-05-20T18:50:47.245Z,54
2023-05-20T18:52:30.964Z,54.1
2023-05-20T18:54:14.646Z,54.2
2023-05-20T18:55:58.352Z,54.3
2023-05-20T18:57:42.025Z,54.4
2023-05-20T18:59:25.720Z,54.4
2023-05-20T19:01:09.421Z,54.5
2023-05-20T19:02:53.129Z,54.5
2023-05-20T19:04:36.845Z,54.5
2023-05-20T19:06:20.528Z,54.8
2023-05-20T19:08:04.245Z,54.6
2023-05-20T19:11:31.646Z,54.7
2023-05-20T19:13:15.339Z,55
2023-05-20T19:14:59.063Z,55.1
2023-05-20T19:16:42.734Z,54.9
2023-05-20T19:18:26.442Z,55
2023-05-20T19:20:10.145Z,55.1
2023-05-20T19:21:53.860Z,55.1
2023-05-20T19:23:37.553Z,55.2
2023-05-20T19:25:21.274Z,55.2
2023-05-20T19:27:04.969Z,55.2
2023-05-20T19:28:48.664Z,55.3
2023-05-20T19:30:32.364Z,55.3
2023-05-20T19:32:16.058Z,55.4
2023-05-20T19:33:59.786Z,55.5
2023-05-20T19:35:43.473Z,55.7
2023-05-20T19:37:27.171Z,55.5
2023-05-20T19:39:10.874Z,55.7
2023-05-20T19:40:54.598Z,55.4
2023-05-20T19:42:38.271Z,55.5
2023-05-20T19:44:21.982Z,55.5
2023-05-20T19:46:05.694Z,55.4
2023-05-20T19:47:49.387Z,55.7
2023-05-20T19:49:33.115Z,55.5
2023-05-20T19:51:16.814Z,55.4
2023-05-20T19:53:00.513Z,55.3
2023-05-20T19:54:44.237Z,55.4
2023-05-20T19:56:27.927Z,55.4
2023-05-20T19:58:11.641Z,55.4
2023-05-20T19:59:55.341Z,55.4
2023-05-20T20:01:39.034Z,55.4
2023-05-20T20:03:22.743Z,55.5
2023-05-20T20:05:06.456Z,55.7
2023-05-20T20:06:50.148Z,55.6
2023-05-20T20:08:33.852Z,55.5
2023-05-20T20:10:17.566Z,55.8
2023-05-20T20:12:01.272Z,55.6
2023-05-20T20:13:44.957Z,55.7
2023-05-20T20:15:28.667Z,55.7
2023-05-20T20:17:12.373Z,55.7
2023-05-20T20:18:56.070Z,55.9
2023-05-20T20:20:39.784Z,56
2023-05-20T20:22:23.516Z,55.9
2023-05-20T20:24:07.174Z,56.1
2023-05-20T20:25:50.883Z,56.3
2023-05-20T20:27:34.569Z,56.1
2023-05-20T20:29:18.281Z,56
2023-05-20T20:31:01.997Z,56
2023-05-20T20:32:45.693Z,56.1
2023-05-20T20:34:29.389Z,56.1
2023-05-20T20:36:13.100Z,56.1
2023-05-20T20:37:56.804Z,56.2
2023-05-20T20:39:40.515Z,56.3
2023-05-20T20:41:24.222Z,56.2
2023-05-20T20:43:07.922Z,56.3
2023-05-20T20:44:51.625Z,56.4
2023-05-20T20:46:35.325Z,56.5
2023-05-20T20:50:02.728Z,56.6
2023-05-20T20:51:46.434Z,56.6
2023-05-20T20:53:30.205Z,56.6
2023-05-20T20:55:13.839Z,56.6
2023-05-20T20:56:57.553Z,56.6
2023-05-20T20:58:41.268Z,56.7
2023-05-20T21:00:24.958Z,56.7
2023-05-20T21:02:08.671Z,56.7
2023-05-20T21:03:52.360Z,56.6
2023-05-20T21:05:36.088Z,56.6
2023-05-20T21:07:19.769Z,56.6
2023-05-20T21:09:03.483Z,56.6
2023-05-20T21:10:47.156Z,56.6
2023-05-20T21:12:30.852Z,56.6
2023-05-20T21:14:14.583Z,56.6
2023-05-20T21:15:58.275Z,56.6
2023-05-20T21:17:41.963Z,56.6
2023-05-20T21:19:25.677Z,56.6
2023-05-20T21:21:09.373Z,56.6
2023-05-20T21:22:53.089Z,56.6
2023-05-20T21:24:36.785Z,56.6
2023-05-20T21:26:20.484Z,56.6
2023-05-20T21:28:04.176Z,56.6
2023-05-20T21:29:47.893Z,56.6
2023-05-20T21:31:31.575Z,56.7
2023-05-20T21:33:15.302Z,56.7
2023-05-20T21:34:58.986Z,56.7
2023-05-20T21:36:42.706Z,56.6
2023-05-20T21:38:26.402Z,56.6
2023-05-20T21:40:10.104Z,56.5
2023-05-20T21:41:53.802Z,56.5
2023-05-20T21:43:37.499Z,56.5
2023-05-20T21:45:21.227Z,56.5
2023-05-20T21:47:04.922Z,56.5
2023-05-20T21:48:48.624Z,56.5
2023-05-20T21:50:32.326Z,56.5
2023-05-20T21:52:16.045Z,56.5
2023-05-20T21:53:59.740Z,56.5
2023-05-20T21:55:43.429Z,56.5
2023-05-20T21:57:27.131Z,56.5
2023-05-20T21:59:10.840Z,56.5
2023-05-20T22:00:54.529Z,56.5
2023-05-20T22:02:38.237Z,56.6
2023-05-20T22:04:21.937Z,56.6
2023-05-20T22:06:05.656Z,56.5
2023-05-20T22:07:49.330Z,56.6
2023-05-20T22:09:33.038Z,56.6
2023-05-20T22:11:16.748Z,56.6
2023-05-20T22:13:00.456Z,56.6
2023-05-20T22:14:44.144Z,56.6
2023-05-20T22:16:27.847Z,56.6
2023-05-20T22:18:11.559Z,56.6
2023-05-20T22:19:55.257Z,56.6
2023-05-20T22:21:38.947Z,56.6
2023-05-20T22:23:22.638Z,56.5
2023-05-20T22:25:06.362Z,56.5
2023-05-20T22:26:50.053Z,56.5
2023-05-20T22:28:33.744Z,56.5
2023-05-20T22:30:17.446Z,56.6
2023-05-20T22:32:01.152Z,56.5
2023-05-20T22:33:44.867Z,56.5
2023-05-20T22:35:28.539Z,56.5
2023-05-20T22:37:12.240Z,56.5
2023-05-20T22:38:55.951Z,56.5
2023-05-20T22:40:39.685Z,56.5
2023-05-20T22:42:23.353Z,56.5
2023-05-20T22:44:07.060Z,56.5
2023-05-20T22:45:50.775Z,56.5
2023-05-20T22:47:34.468Z,56.5
2023-05-20T22:49:18.171Z,56.5
2023-05-20T22:51:01.879Z,56.5
2023-05-20T22:52:45.588Z,56.5
2023-05-20T22:54:29.287Z,56.5
2023-05-20T22:56:12.983Z,56.5
2023-05-20T22:57:56.673Z,56.5
2023-05-20T22:59:40.396Z,56.5
2023-05-20T23:01:24.094Z,56.5
2023-05-20T23:03:07.785Z,56.5
2023-05-20T23:04:51.487Z,56.5
2023-05-20T23:06:35.190Z,56.5
2023-05-20T23:08:18.891Z,56.5
2023-05-20T23:10:02.597Z,56.5
2023-05-20T23:11:46.283Z,56.5
2023-05-20T23:13:29.984Z,56.6
2023-05-20T23:15:13.691Z,56.6
2023-05-20T23:16:57.395Z,56.6
2023-05-20T23:18:41.083Z,56.5
2023-05-20T23:20:24.791Z,56.6
2023-05-20T23:22:08.491Z,56.6